Time;durP1;ratioP1;P1;durP2;ratioP2;P2;SDS_P1;SDS_P2;PMS_P1;PMS_P2;Temp;Humidity;BMP_temperature;BMP_pressure;BME280_temperature;BME280_humidity;BME280_pressure;Samples;Min_cycle;Max_cycle;Signal;HPM_P1;HPM_P2
2023/01/12 00:02:00;;;;;;;22.83;3.80;;;9.00;99.90;;;;;;5082048;28;20208;-85
2023/01/12 00:04:29;;;;;;;15.23;4.07;;;9.00;99.90;;;;;;5081738;28;20220;-85
2023/01/12 00:06:57;;;;;;;16.17;3.80;;;8.90;99.90;;;;;;5083775;28;20247;-85
2023/01/12 00:09:24;;;;;;;17.00;3.73;;;8.90;99.90;;;;;;5079855;28;20698;-84
2023/01/12 00:11:51;;;;;;;14.80;3.70;;;8.90;99.90;;;;;;5094204;28;20237;-81
2023/01/12 00:14:19;;;;;;;15.40;4.07;;;9.00;99.90;;;;;;5091084;28;20203;-82
2023/01/12 00:16:47;;;;;;;16.03;3.80;;;9.00;99.90;;;;;;5068127;28;20675;-83
2023/01/12 00:19:16;;;;;;;15.83;3.63;;;9.00;99.90;;;;;;5106833;28;20199;-82
2023/01/12 00:21:55;;;;;;;17.37;4.47;;;9.00;99.90;;;;;;5094956;28;20261;-84
2023/01/12 00:24:25;;;;;;;16.80;4.53;;;9.00;99.90;;;;;;5081847;28;20213;-83
2023/01/12 00:26:53;;;;;;;11.97;3.63;;;9.00;99.90;;;;;;5081317;28;20228;-84
2023/01/12 00:29:22;;;;;;;16.30;4.47;;;9.00;99.90;;;;;;5099253;28;20445;-83
2023/01/12 00:31:49;;;;;;;11.73;3.43;;;9.00;99.90;;;;;;5104321;28;20264;-83
2023/01/12 00:34:17;;;;;;;15.30;4.27;;;9.10;99.90;;;;;;5087651;28;20216;-82
2023/01/12 00:36:45;;;;;;;14.23;3.57;;;9.10;99.90;;;;;;5082653;28;20313;-82
2023/01/12 00:39:12;;;;;;;14.33;3.63;;;9.10;99.90;;;;;;5099739;28;20659;-82
2023/01/12 00:47:13;;;;;;;13.13;3.50;;;9.10;99.90;;;;;;5080359;28;20244;-82
2023/01/12 00:49:41;;;;;;;12.97;3.83;;;9.80;99.90;;;;;;5077275;28;20203;-83
2023/01/12 00:52:10;;;;;;;13.70;3.70;;;9.20;99.90;;;;;;5081667;28;20208;-83
2023/01/12 00:54:38;;;;;;;13.83;3.90;;;9.20;99.90;;;;;;5099448;28;20240;-82
2023/01/12 00:57:06;;;;;;;15.60;3.97;;;9.20;99.90;;;;;;5080819;28;20210;-85
2023/01/12 00:59:36;;;;;;;14.53;3.60;;;9.20;99.90;;;;;;5079703;28;20219;-83
2023/01/12 01:02:04;;;;;;;13.77;3.77;;;9.30;99.90;;;;;;5098633;28;20570;-84
2023/01/12 01:04:33;;;;;;;15.90;4.20;;;8.40;99.90;;;;;;5082522;28;20218;-87
2023/01/12 01:07:03;;;;;;;19.87;4.23;;;9.20;99.90;;;;;;5081379;28;20356;-82
2023/01/12 01:09:31;;;;;;;17.70;4.30;;;9.30;99.90;;;;;;5077513;28;20215;-82
2023/01/12 01:11:59;;;;;;;16.67;3.93;;;;;;;;;;5097386;28;20257;-82
2023/01/12 01:14:26;;;;;;;13.50;3.90;;;9.30;99.90;;;;;;5098948;28;20756;-81
2023/01/12 01:16:55;;;;;;;18.20;4.30;;;9.30;99.90;;;;;;5098553;28;20223;-82
2023/01/12 01:19:23;;;;;;;16.53;3.63;;;9.30;99.90;;;;;;5088545;28;20287;-82
2023/01/12 01:21:51;;;;;;;15.83;4.03;;;9.30;99.90;;;;;;5081538;28;20290;-82
2023/01/12 01:24:20;;;;;;;18.40;4.43;;;9.30;99.90;;;;;;5080565;28;20218;-82
2023/01/12 01:26:50;;;;;;;16.87;4.20;;;9.30;99.90;;;;;;5084111;28;20879;-82
2023/01/12 01:29:17;;;;;;;15.60;3.83;;;9.40;99.90;;;;;;5083092;28;20214;-84
2023/01/12 01:31:46;;;;;;;19.47;4.17;;;9.40;99.90;;;;;;5085396;28;20256;-85
2023/01/12 01:34:15;;;;;;;15.13;3.67;;;9.60;99.90;;;;;;5082478;28;20229;-84
2023/01/12 01:36:43;;;;;;;16.43;4.13;;;9.40;99.90;;;;;;5104173;28;20280;-84
2023/01/12 01:39:10;;;;;;;16.00;4.13;;;9.40;99.90;;;;;;5102113;28;20222;-83
2023/01/12 01:41:38;;;;;;;21.17;4.10;;;9.50;99.90;;;;;;5099796;28;20310;-84
2023/01/12 01:44:27;;;;;;;21.33;4.93;;;9.50;99.90;;;;;;5100315;28;20221;-84
2023/01/12 01:46:58;;;;;;;20.00;4.93;;;9.50;99.90;;;;;;5096776;28;20227;-85
2023/01/12 01:49:33;;;;;;;15.90;4.10;;;9.60;99.90;;;;;;5080101;28;20234;-83
2023/01/12 01:52:06;;;;;;;17.27;3.77;;;9.50;99.90;;;;;;5083010;28;20195;-83
2023/01/12 01:54:37;;;;;;;21.47;4.80;;;9.50;99.90;;;;;;5101382;28;20211;-84
2023/01/12 01:57:06;;;;;;;22.63;4.90;;;9.50;99.90;;;;;;5101167;28;20657;-84
2023/01/12 01:59:36;;;;;;;21.90;4.67;;;9.50;99.90;;;;;;5100176;28;20609;-83
2023/01/12 02:02:04;;;;;;;19.60;4.83;;;9.60;99.90;;;;;;5080191;28;20229;-84
2023/01/12 02:04:37;;;;;;;22.30;4.73;;;9.60;99.90;;;;;;5080693;28;20224;-83
2023/01/12 02:07:07;;;;;;;11.60;3.60;;;9.60;99.90;;;;;;5076485;28;20287;-84
2023/01/12 02:09:34;;;;;;;19.50;5.10;;;9.60;99.90;;;;;;5102053;28;20330;-84
2023/01/12 02:17:58;;;;;;;12.43;4.00;;;9.60;99.90;;;;;;5081091;28;20744;-84
2023/01/12 02:20:47;;;;;;;17.07;3.97;;;9.70;99.90;;;;;;5082802;28;20222;-84
2023/01/12 02:23:47;;;;;;;21.50;4.73;;;9.70;99.90;;;;;;5080097;28;20218;-82
2023/01/12 02:27:16;;;;;;;16.90;4.37;;;9.70;99.90;;;;;;5065137;28;20250;-83
2023/01/12 02:30:12;;;;;;;20.33;6.10;;;9.70;99.90;;;;;;5002618;28;20202;-83
2023/01/12 02:32:55;;;;;;;16.33;3.57;;;9.70;99.90;;;;;;5020177;28;20570;-82
2023/01/12 02:35:28;;;;;;;19.83;4.30;;;9.70;99.90;;;;;;5078960;28;20962;-83
2023/01/12 02:38:03;;;;;;;13.83;4.40;;;9.70;99.90;;;;;;5083235;28;20203;-83
2023/01/12 02:40:37;;;;;;;20.73;3.97;;;9.70;99.90;;;;;;5103471;28;20267;-83
2023/01/12 02:43:12;;;;;;;18.70;4.40;;;9.70;99.90;;;;;;5105475;28;20212;-83
2023/01/12 02:45:47;;;;;;;16.87;4.07;;;9.70;99.90;;;;;;5092066;28;20274;-83
2023/01/12 02:48:21;;;;;;;19.00;4.13;;;9.70;99.90;;;;;;5085249;28;20272;-86
2023/01/12 02:50:54;;;;;;;17.53;4.07;;;9.70;99.90;;;;;;5085762;28;20203;-84
2023/01/12 02:53:29;;;;;;;16.87;3.80;;;9.60;99.90;;;;;;5084875;28;20206;-84
2023/01/12 02:56:02;;;;;;;15.70;4.23;;;9.60;99.90;;;;;;5100888;28;20460;-84
2023/01/12 02:58:34;;;;;;;21.97;4.43;;;9.60;99.90;;;;;;5101083;28;20211;-85
2023/01/12 03:01:11;;;;;;;18.53;4.53;;;9.60;99.90;;;;;;5103447;28;20200;-84
2023/01/12 03:03:41;;;;;;;20.63;4.77;;;9.50;99.90;;;;;;5083505;28;20669;-84
2023/01/12 03:06:09;;;;;;;20.27;5.17;;;9.50;99.90;;;;;;5082901;28;20232;-85
2023/01/12 03:08:39;;;;;;;23.17;4.17;;;9.50;99.90;;;;;;5082485;28;20249;-85
2023/01/12 03:11:13;;;;;;;18.20;4.30;;;9.50;99.90;;;;;;5101590;28;20595;-86
2023/01/12 03:13:45;;;;;;;17.63;4.00;;;9.50;99.90;;;;;;5083127;28;20278;-81
2023/01/12 03:16:16;;;;;;;18.17;4.47;;;9.50;99.90;;;;;;5080885;28;20694;-82
2023/01/12 03:18:49;;;;;;;15.97;3.83;;;9.50;99.90;;;;;;5078361;28;20199;-83
2023/01/12 03:21:21;;;;;;;18.43;4.77;;;9.50;99.90;;;;;;5082514;28;20206;-82
2023/01/12 03:23:52;;;;;;;21.60;4.90;;;9.50;99.90;;;;;;5084240;28;20575;-83
2023/01/12 03:26:24;;;;;;;17.53;4.07;;;9.50;99.90;;;;;;5105373;28;20223;-84
2023/01/12 03:28:59;;;;;;;19.13;4.67;;;9.50;99.90;;;;;;5103064;28;20897;-82
2023/01/12 03:31:27;;;;;;;18.60;3.93;;;9.50;99.90;;;;;;5081960;28;20222;-83
2023/01/12 03:33:57;;;;;;;17.67;4.93;;;9.50;99.90;;;;;;5100252;28;20234;-82
2023/01/12 03:36:33;;;;;;;25.33;4.67;;;9.50;99.90;;;;;;5083123;28;20238;-84
2023/01/12 03:39:12;;;;;;;12.30;3.47;;;9.50;99.90;;;;;;5096816;28;20210;-82
2023/01/12 03:41:49;;;;;;;27.80;5.83;;;9.50;99.90;;;;;;5103303;28;20202;-82
2023/01/12 03:44:22;;;;;;;16.03;4.40;;;9.50;99.90;;;;;;5084797;28;20195;-82
2023/01/12 03:46:55;;;;;;;19.13;4.07;;;9.50;99.90;;;;;;5082213;28;20789;-81
2023/01/12 03:49:31;;;;;;;19.23;4.40;;;9.50;99.90;;;;;;5093622;28;20244;-82
2023/01/12 03:52:01;;;;;;;14.50;3.17;;;9.50;99.90;;;;;;5083961;28;20190;-82
2023/01/12 03:54:32;;;;;;;18.20;3.80;;;9.50;99.90;;;;;;5087716;28;20215;-82
2023/01/12 03:57:01;;;;;;;12.87;3.47;;;9.50;99.90;;;;;;5082066;28;20212;-82
2023/01/12 03:59:28;;;;;;;18.97;4.37;;;9.40;99.90;;;;;;5083572;28;20714;-81
2023/01/12 04:01:56;;;;;;;19.10;4.43;;;9.40;99.90;;;;;;5087056;28;20248;-83
2023/01/12 04:04:25;;;;;;;16.27;3.90;;;9.50;99.90;;;;;;5085445;28;20717;-81
2023/01/12 04:06:52;;;;;;;19.10;4.10;;;9.50;99.90;;;;;;5098922;28;20200;-84
2023/01/12 04:09:21;;;;;;;17.37;4.00;;;9.50;99.90;;;;;;5096695;28;20223;-80
2023/01/12 04:14:33;;;;;;;21.93;4.27;;;9.50;99.90;;;;;;5098052;28;20207;-84
2023/01/12 04:17:00;;;;;;;19.43;3.57;;;9.50;99.90;;;;;;5072704;28;20211;-83
2023/01/12 04:19:29;;;;;;;18.70;4.30;;;9.50;99.90;;;;;;5079377;28;20224;-81
2023/01/12 04:24:42;;;;;;;18.13;4.53;;;9.50;99.90;;;;;;5079287;28;20235;-82
2023/01/12 04:27:09;;;;;;;16.57;3.87;;;9.60;99.90;;;;;;5081798;28;20203;-81
2023/01/12 04:29:36;;;;;;;9.10;3.03;;;9.50;99.90;;;;;;5081511;28;20227;-81
2023/01/12 04:32:04;;;;;;;14.77;3.63;;;9.50;99.90;;;;;;5078673;28;20648;-81
2023/01/12 04:34:34;;;;;;;15.13;3.50;;;9.60;99.90;;;;;;5079500;28;20222;-80
2023/01/12 04:37:01;;;;;;;14.43;3.90;;;9.50;99.90;;;;;;5080603;28;20192;-82
2023/01/12 04:39:29;;;;;;;13.57;3.23;;;9.60;99.90;;;;;;5081368;28;20200;-81
2023/01/12 04:41:56;;;;;;;7.73;2.77;;;9.60;99.90;;;;;;5097198;28;20192;-82
2023/01/12 04:44:23;;;;;;;18.40;3.50;;;9.50;99.90;;;;;;5077979;28;20203;-83
2023/01/12 04:46:51;;;;;;;15.30;3.97;;;9.50;99.90;;;;;;5082834;28;20683;-81
2023/01/12 04:49:18;;;;;;;16.07;3.70;;;9.40;99.90;;;;;;5101062;28;20211;-85
2023/01/12 04:51:47;;;;;;;13.63;3.50;;;9.40;99.90;;;;;;5095515;28;20195;-81
2023/01/12 04:54:14;;;;;;;12.87;3.27;;;;;;;;;;5077914;28;20214;-83
2023/01/12 04:56:42;;;;;;;18.57;3.93;;;9.40;99.90;;;;;;5082416;28;20287;-83
2023/01/12 04:59:09;;;;;;;16.40;3.77;;;9.40;99.90;;;;;;5074385;28;20201;-82
2023/01/12 05:01:37;;;;;;;13.97;3.67;;;9.30;99.90;;;;;;5082949;28;20211;-82
2023/01/12 05:04:05;;;;;;;16.57;4.53;;;9.30;99.90;;;;;;5080871;28;20207;-84
2023/01/12 05:06:32;;;;;;;11.43;3.57;;;9.30;99.90;;;;;;5076842;28;20239;-83
2023/01/12 05:11:45;;;;;;;15.27;4.77;;;9.20;99.90;;;;;;5080971;28;20234;-82
2023/01/12 05:14:13;;;;;;;10.57;3.20;;;9.20;99.90;;;;;;5100292;28;20207;-85
2023/01/12 05:16:40;;;;;;;13.90;3.80;;;9.20;99.90;;;;;;5071698;28;20298;-83
2023/01/12 05:19:09;;;;;;;13.53;3.83;;;9.20;99.90;;;;;;5081202;28;20199;-84
2023/01/12 05:21:39;;;;;;;18.20;4.23;;;9.20;99.90;;;;;;5086887;28;20293;-81
2023/01/12 05:24:08;;;;;;;14.60;4.40;;;9.20;99.90;;;;;;5078398;28;20215;-82
2023/01/12 05:26:35;;;;;;;20.33;4.50;;;9.20;99.90;;;;;;5077775;28;20246;-81
2023/01/12 05:29:03;;;;;;;8.53;2.93;;;9.20;99.90;;;;;;5077076;28;20224;-81
2023/01/12 05:31:30;;;;;;;18.97;3.80;;;9.20;99.90;;;;;;5078691;28;20267;-81
2023/01/12 05:33:57;;;;;;;14.37;3.37;;;9.20;99.90;;;;;;5075868;28;20212;-80
2023/01/12 05:36:24;;;;;;;14.07;3.77;;;9.20;99.90;;;;;;5076886;28;20238;-80
2023/01/12 05:38:52;;;;;;;13.93;3.83;;;9.20;99.90;;;;;;5077675;28;20697;-81
2023/01/12 05:41:21;;;;;;;9.80;3.50;;;9.20;99.90;;;;;;5101657;28;20396;-81
2023/01/12 05:43:51;;;;;;;11.17;2.97;;;9.20;99.90;;;;;;5092762;28;20230;-81
2023/01/12 05:46:21;;;;;;;8.67;2.70;;;9.10;99.90;;;;;;5078227;28;20729;-80
2023/01/12 05:48:49;;;;;;;11.90;3.53;;;9.10;99.90;;;;;;5076749;28;20229;-81
2023/01/12 05:51:17;;;;;;;10.67;3.03;;;9.10;99.90;;;;;;5079134;28;20277;-81
2023/01/12 05:53:44;;;;;;;14.77;4.20;;;9.10;99.90;;;;;;5082284;28;20199;-80
2023/01/12 05:56:16;;;;;;;12.37;3.47;;;9.10;99.90;;;;;;5080672;28;20675;-80
2023/01/12 05:58:49;;;;;;;14.03;3.57;;;9.10;99.90;;;;;;5076460;28;20284;-80
2023/01/12 06:01:17;;;;;;;10.77;3.50;;;9.10;99.90;;;;;;5099709;28;20658;-81
2023/01/12 06:03:47;;;;;;;13.17;3.47;;;9.10;99.90;;;;;;5080823;28;20204;-82
2023/01/12 06:06:15;;;;;;;13.97;3.73;;;9.10;99.90;;;;;;5080490;28;20298;-82
2023/01/12 06:08:42;;;;;;;11.23;3.47;;;9.10;99.90;;;;;;5100283;28;20220;-82
2023/01/12 06:13:55;;;;;;;11.67;3.33;;;9.10;99.90;;;;;;5079763;28;20211;-81
2023/01/12 06:13:58;;;;;;;12.23;3.30;;;9.00;99.90;;;;;;5075925;28;20204;-82
2023/01/12 06:16:27;;;;;;;15.20;3.90;;;9.00;99.90;;;;;;5098111;28;20269;-81
2023/01/12 06:18:55;;;;;;;9.53;2.73;;;9.00;99.90;;;;;;5081425;28;20282;-81
2023/01/12 06:21:23;;;;;;;13.53;3.47;;;9.00;99.90;;;;;;5106132;28;20210;-83
2023/01/12 06:23:51;;;;;;;16.97;4.33;;;9.00;99.90;;;;;;5084051;28;20283;-83
2023/01/12 06:26:18;;;;;;;14.37;3.77;;;9.00;99.90;;;;;;5079201;28;20275;-78
2023/01/12 06:28:45;;;;;;;16.80;4.33;;;9.00;99.90;;;;;;5075533;28;20255;-79
2023/01/12 06:31:14;;;;;;;9.87;3.20;;;9.10;99.90;;;;;;5074142;28;20216;-79
2023/01/12 06:33:41;;;;;;;13.40;3.17;;;9.10;99.90;;;;;;5091811;28;20212;-78
2023/01/12 06:36:10;;;;;;;15.73;3.93;;;9.10;99.90;;;;;;5074285;28;20234;-78
2023/01/12 06:38:40;;;;;;;14.20;3.87;;;9.10;99.90;;;;;;5074148;28;20216;-79
2023/01/12 06:42:27;;;;;;;12.63;3.43;;;9.10;99.90;;;;;;5095781;28;20978;-78
2023/01/12 06:44:03;;;;;;;13.83;3.47;;;9.10;99.90;;;;;;5076332;28;20546;-82
2023/01/12 06:46:32;;;;;;;16.40;5.33;;;9.10;99.90;;;;;;5077321;28;20234;-84
2023/01/12 06:48:59;;;;;;;12.37;3.70;;;9.10;99.90;;;;;;5075529;28;20340;-84
2023/01/12 06:51:27;;;;;;;8.83;3.00;;;9.10;99.90;;;;;;5090516;28;20237;-85
2023/01/12 06:53:56;;;;;;;13.73;3.67;;;9.10;99.90;;;;;;5081227;28;20218;-86
2023/01/12 06:56:24;;;;;;;14.53;3.70;;;9.20;99.90;;;;;;5081746;28;20384;-82
2023/01/12 06:58:51;;;;;;;19.90;5.37;;;9.20;99.90;;;;;;5082893;28;20215;-84
2023/01/12 07:01:18;;;;;;;12.40;3.63;;;9.20;99.90;;;;;;5101820;28;20207;-81
2023/01/12 07:03:47;;;;;;;13.20;3.83;;;9.20;99.90;;;;;;5098201;28;20198;-80
2023/01/12 07:06:15;;;;;;;16.47;4.17;;;9.20;99.90;;;;;;5098772;28;20235;-79
2023/01/12 07:08:42;;;;;;;15.77;4.07;;;9.30;99.90;;;;;;5074428;28;20281;-79
2023/01/12 07:11:11;;;;;;;17.27;4.40;;;9.30;99.90;;;;;;5075993;28;20662;-79
2023/01/12 07:13:38;;;;;;;15.87;4.00;;;9.40;99.90;;;;;;5076407;28;20222;-81
2023/01/12 07:16:06;;;;;;;14.47;3.87;;;9.40;99.90;;;;;;5095248;28;20713;-80
2023/01/12 07:18:34;;;;;;;14.03;3.10;;;9.40;99.90;;;;;;5076515;28;20207;-80
2023/01/12 07:21:06;;;;;;;15.20;3.73;;;9.40;99.90;;;;;;5075567;28;20604;-80
2023/01/12 07:23:33;;;;;;;12.67;3.63;;;9.40;99.90;;;;;;5076477;28;20208;-81
2023/01/12 07:26:01;;;;;;;14.17;3.97;;;9.40;99.90;;;;;;5077476;28;20280;-80
2023/01/12 07:28:30;;;;;;;13.57;3.50;;;9.40;99.90;;;;;;5077689;28;20227;-78
2023/01/12 07:31:01;;;;;;;14.43;4.87;;;9.50;99.90;;;;;;5085272;28;20205;-79
2023/01/12 07:33:28;;;;;;;10.73;3.53;;;9.50;99.90;;;;;;5098030;28;20207;-79
2023/01/12 07:35:58;;;;;;;11.17;3.53;;;9.50;99.90;;;;;;5077958;28;20296;-80
2023/01/12 07:38:27;;;;;;;10.80;3.70;;;9.50;99.90;;;;;;5097771;28;20200;-80
2023/01/12 07:40:55;;;;;;;14.67;3.50;;;9.50;99.90;;;;;;5076216;28;20214;-79
2023/01/12 07:43:22;;;;;;;14.13;3.70;;;9.60;99.90;;;;;;5076998;28;20231;-79
2023/01/12 07:45:49;;;;;;;18.07;4.33;;;9.60;99.90;;;;;;5079725;28;20214;-80
2023/01/12 07:48:16;;;;;;;10.83;3.30;;;9.60;99.90;;;;;;5080219;28;20670;-80
2023/01/12 07:50:43;;;;;;;13.80;3.70;;;9.60;99.90;;;;;;5074127;28;20233;-79
2023/01/12 07:53:11;;;;;;;12.77;3.67;;;9.70;99.90;;;;;;5071455;28;20681;-80
2023/01/12 07:55:42;;;;;;;15.37;6.20;;;9.70;99.90;;;;;;5077769;28;20295;-81
2023/01/12 07:58:10;;;;;;;10.87;4.03;;;9.80;99.90;;;;;;5091511;28;20213;-83
2023/01/12 08:00:38;;;;;;;15.17;4.23;;;9.80;99.90;;;;;;5074495;28;20214;-81
2023/01/12 08:03:07;;;;;;;11.70;3.90;;;9.80;99.90;;;;;;5091878;28;20207;-82
2023/01/12 08:05:35;;;;;;;14.00;3.90;;;9.90;99.90;;;;;;5075148;28;20300;-81
2023/01/12 08:08:03;;;;;;;13.07;4.33;;;9.90;99.90;;;;;;5073595;28;20702;-79
2023/01/12 08:10:30;;;;;;;10.57;3.63;;;9.90;99.90;;;;;;5067603;28;20246;-78
2023/01/12 08:12:59;;;;;;;14.90;2.87;;;9.90;99.90;;;;;;5083480;28;20710;-80
2023/01/12 08:15:27;;;;;;;10.17;3.10;;;10.00;99.90;;;;;;5074828;28;20279;-78
2023/01/12 08:17:58;;;;;;;15.07;3.70;;;10.00;99.90;;;;;;5073118;28;20226;-78
2023/01/12 08:20:30;;;;;;;8.30;2.93;;;10.00;99.90;;;;;;5076889;28;20196;-80
2023/01/12 08:23:01;;;;;;;11.47;3.30;;;10.00;99.90;;;;;;5071763;28;20265;-81
2023/01/12 08:25:34;;;;;;;12.07;3.33;;;10.00;99.90;;;;;;5074236;28;20627;-85
2023/01/12 08:28:07;;;;;;;12.10;3.90;;;10.10;99.90;;;;;;5068951;28;20231;-85
2023/01/12 08:30:34;;;;;;;12.97;3.53;;;10.10;99.90;;;;;;5071027;28;21735;-84
2023/01/12 08:33:02;;;;;;;9.00;2.60;;;10.10;99.90;;;;;;5073404;28;20290;-84
2023/01/12 08:35:31;;;;;;;16.07;3.40;;;10.20;99.90;;;;;;5071746;28;20234;-84
2023/01/12 08:38:00;;;;;;;8.30;2.70;;;10.20;99.90;;;;;;5083265;28;20206;-85
2023/01/12 08:41:31;;;;;;;8.67;2.80;;;10.30;99.90;;;;;;5071817;28;20211;-84
2023/01/12 08:44:00;;;;;;;13.87;3.70;;;10.20;99.90;;;;;;5072409;28;20694;-85
2023/01/12 08:46:06;;;;;;;9.13;2.90;;;10.20;99.90;;;;;;5067503;28;20223;-84
2023/01/12 08:48:38;;;;;;;8.13;2.93;;;10.30;99.90;;;;;;5068331;28;20206;-85
2023/01/12 08:51:06;;;;;;;12.73;3.67;;;10.30;99.90;;;;;;5067567;28;20230;-85
2023/01/12 08:53:34;;;;;;;11.87;3.50;;;9.90;99.90;;;;;;5085698;28;20328;-84
2023/01/12 08:56:01;;;;;;;8.90;3.33;;;10.40;99.90;;;;;;5068961;28;20232;-85
2023/01/12 08:58:31;;;;;;;12.00;3.50;;;10.40;99.90;;;;;;5082822;28;20642;-85
2023/01/12 09:01:07;;;;;;;9.17;2.90;;;10.50;99.90;;;;;;5066112;28;20620;-85
2023/01/12 09:03:35;;;;;;;8.73;3.00;;;10.60;99.90;;;;;;5083369;28;20222;-85
2023/01/12 09:06:10;;;;;;;8.20;2.90;;;10.60;99.90;;;;;;5069525;28;20227;-83
2023/01/12 09:08:38;;;;;;;7.97;2.83;;;10.60;99.90;;;;;;5067694;28;20538;-84
2023/01/12 09:11:07;;;;;;;7.27;2.70;;;10.60;99.90;;;;;;5076786;28;20219;-84
2023/01/12 09:13:36;;;;;;;9.53;2.90;;;10.60;99.90;;;;;;5062952;28;20223;-84
2023/01/12 09:16:04;;;;;;;9.10;2.97;;;10.70;99.90;;;;;;5061613;28;20231;-84
2023/01/12 09:18:32;;;;;;;11.53;3.33;;;10.70;99.90;;;;;;5058349;28;20637;-84
2023/01/12 09:21:03;;;;;;;8.90;2.97;;;10.80;99.90;;;;;;5084860;28;20214;-84
2023/01/12 09:23:30;;;;;;;11.67;3.50;;;10.80;99.90;;;;;;5074469;28;20211;-84
2023/01/12 09:26:02;;;;;;;10.43;3.37;;;10.80;99.90;;;;;;5062152;28;20222;-84
2023/01/12 09:28:31;;;;;;;11.30;4.30;;;10.90;99.90;;;;;;5081108;28;20208;-84
2023/01/12 09:31:03;;;;;;;15.47;5.13;;;10.90;99.90;;;;;;5064597;28;20341;-86
2023/01/12 09:33:31;;;;;;;11.97;4.00;;;10.90;99.90;;;;;;5084835;28;20938;-84
2023/01/12 09:36:02;;;;;;;10.57;3.70;;;11.00;99.90;;;;;;5065800;28;20795;-84
2023/01/12 09:38:30;;;;;;;12.77;3.67;;;11.00;99.90;;;;;;5059045;28;20216;-85
2023/01/12 09:40:59;;;;;;;7.17;2.70;;;11.00;99.90;;;;;;5058826;28;20211;-85
2023/01/12 09:49:07;;;;;;;8.50;3.00;;;11.10;99.90;;;;;;5065558;28;20207;-84
2023/01/12 09:51:37;;;;;;;12.40;3.60;;;11.10;99.90;;;;;;5057737;28;21042;-85
2023/01/12 09:54:06;;;;;;;8.20;2.80;;;11.20;99.90;;;;;;5072958;28;20207;-85
2023/01/12 09:56:40;;;;;;;9.47;3.10;;;11.20;99.90;;;;;;5090982;28;20253;-85
2023/01/12 09:59:19;;;;;;;10.27;3.30;;;11.20;99.90;;;;;;5079890;28;20343;-85
2023/01/12 10:01:48;;;;;;;14.93;3.70;;;11.20;99.90;;;;;;5080781;28;20221;-85
2023/01/12 10:04:15;;;;;;;11.73;3.00;;;11.30;99.90;;;;;;5076422;28;20317;-84
2023/01/12 10:06:43;;;;;;;9.43;2.67;;;11.30;99.90;;;;;;5097917;28;20219;-84
2023/01/12 10:09:13;;;;;;;9.90;3.43;;;11.40;99.90;;;;;;5083188;28;20295;-86
2023/01/12 10:11:47;;;;;;;9.60;2.60;;;11.40;99.90;;;;;;5074837;28;20212;-86
2023/01/12 10:14:37;;;;;;;9.50;2.70;;;11.40;99.90;;;;;;5079178;28;20208;-83
2023/01/12 10:17:53;;;;;;;10.53;2.97;;;11.50;99.90;;;;;;5077555;28;20200;-83
2023/01/12 10:20:27;;;;;;;9.43;3.07;;;11.50;99.90;;;;;;5070738;28;20204;-83
2023/01/12 10:22:58;;;;;;;10.43;3.30;;;11.50;99.90;;;;;;5083743;28;20561;-82
2023/01/12 10:25:37;;;;;;;10.07;3.13;;;11.50;99.90;;;;;;5073090;28;20223;-83
2023/01/12 10:28:14;;;;;;;9.97;3.17;;;11.50;99.90;;;;;;5065951;28;20228;-83
2023/01/12 10:30:41;;;;;;;9.27;3.07;;;11.50;99.90;;;;;;5069718;28;20281;-82
2023/01/12 10:33:12;;;;;;;7.10;2.90;;;11.50;99.90;;;;;;5070277;28;20542;-82
2023/01/12 10:35:53;;;;;;;9.53;3.00;;;11.50;99.90;;;;;;5090670;28;20224;-82
2023/01/12 10:38:24;;;;;;;7.70;2.93;;;11.50;99.90;;;;;;5086641;28;20215;-83
2023/01/12 10:41:07;;;;;;;10.30;3.07;;;11.50;99.90;;;;;;5082493;28;20212;-83
2023/01/12 10:43:34;;;;;;;11.07;3.50;;;11.50;99.90;;;;;;5079437;28;20200;-83
2023/01/12 10:46:10;;;;;;;12.40;3.33;;;11.50;99.90;;;;;;5079751;28;20207;-83
2023/01/12 10:48:49;;;;;;;8.57;3.03;;;11.50;99.90;;;;;;5083628;28;20610;-83
2023/01/12 10:51:26;;;;;;;10.57;3.33;;;11.40;99.90;;;;;;5069746;28;20243;-84
2023/01/12 10:53:57;;;;;;;8.17;2.73;;;11.40;99.90;;;;;;5085600;28;20199;-83
2023/01/12 10:56:29;;;;;;;9.00;2.97;;;11.40;99.90;;;;;;5078250;28;20270;-84
2023/01/12 10:59:00;;;;;;;10.80;3.73;;;11.40;99.90;;;;;;5067282;28;20306;-84
2023/01/12 11:01:43;;;;;;;8.87;2.93;;;11.40;99.90;;;;;;5065833;28;20213;-81
2023/01/12 11:04:15;;;;;;;8.07;3.03;;;11.40;99.90;;;;;;5066011;28;20218;-82
2023/01/12 11:06:45;;;;;;;10.43;2.77;;;11.40;99.90;;;;;;5081575;28;20335;-82
2023/01/12 11:09:24;;;;;;;8.23;2.70;;;11.40;99.90;;;;;;5081717;28;20306;-82
2023/01/12 11:11:57;;;;;;;8.37;3.03;;;11.50;99.90;;;;;;5065513;28;20204;-82
2023/01/12 11:14:28;;;;;;;10.43;3.07;;;11.60;99.90;;;;;;5084727;28;20188;-82
2023/01/12 11:17:03;;;;;;;9.17;3.00;;;11.60;99.90;;;;;;5064304;28;20267;-82
2023/01/12 11:19:37;;;;;;;8.40;3.00;;;11.60;99.90;;;;;;5072751;28;20222;-82
2023/01/12 11:22:09;;;;;;;8.80;2.83;;;11.60;99.90;;;;;;5080393;28;20199;-82
2023/01/12 11:24:43;;;;;;;11.83;3.03;;;11.70;99.90;;;;;;5082844;28;20224;-82
2023/01/12 11:27:17;;;;;;;10.07;3.27;;;11.70;99.90;;;;;;5078588;28;20236;-82
2023/01/12 11:29:52;;;;;;;9.37;3.43;;;11.70;99.90;;;;;;5092432;28;20794;-82
2023/01/12 11:32:31;;;;;;;11.83;3.80;;;11.70;99.90;;;;;;5088061;28;20223;-82
2023/01/12 11:35:06;;;;;;;9.67;3.10;;;11.70;99.90;;;;;;5075339;28;20235;-82
2023/01/12 11:37:37;;;;;;;11.13;3.23;;;11.80;99.90;;;;;;5073151;28;20684;-82
2023/01/12 11:40:18;;;;;;;11.83;3.40;;;11.70;99.90;;;;;;5099618;28;20223;-82
2023/01/12 11:45:47;;;;;;;13.73;3.30;;;11.70;99.90;;;;;;5078611;28;20219;-83
2023/01/12 11:51:25;;;;;;;9.20;3.23;;;11.70;99.90;;;;;;5071643;28;20279;-83
2023/01/12 11:53:52;;;;;;;9.83;2.90;;;11.70;99.90;;;;;;5062944;28;20204;-84
2023/01/12 11:56:41;;;;;;;9.57;3.00;;;11.80;99.90;;;;;;5088766;28;20590;-83
2023/01/12 11:59:15;;;;;;;10.30;3.27;;;11.80;99.90;;;;;;5093022;28;20204;-84
2023/01/12 12:01:55;;;;;;;7.97;2.53;;;11.70;99.90;;;;;;5095854;28;20211;-81
2023/01/12 12:04:41;;;;;;;9.53;2.70;;;11.70;99.90;;;;;;5078963;28;20199;-83
2023/01/12 12:07:25;;;;;;;9.33;3.37;;;11.70;99.90;;;;;;5095781;28;20203;-82
2023/01/12 12:10:20;;;;;;;7.93;2.90;;;11.70;99.90;;;;;;5097434;28;20200;-80
2023/01/12 12:13:07;;;;;;;11.63;2.60;;;11.70;99.90;;;;;;5085429;28;20220;-80
2023/01/12 12:15:43;;;;;;;8.57;2.93;;;11.70;99.90;;;;;;5089625;28;20238;-83
2023/01/12 12:18:20;;;;;;;9.67;2.57;;;11.70;99.90;;;;;;5086306;28;20225;-81
2023/01/12 12:21:04;;;;;;;11.33;3.00;;;11.60;99.90;;;;;;5105684;28;20192;-81
2023/01/12 12:23:45;;;;;;;6.70;2.67;;;11.60;99.90;;;;;;5103744;28;20207;-82
2023/01/12 12:26:22;;;;;;;10.20;3.10;;;11.50;99.90;;;;;;5101938;28;20210;-82
2023/01/12 12:29:18;;;;;;;8.73;3.00;;;11.50;99.90;;;;;;5087250;28;20183;-82
2023/01/12 12:32:07;;;;;;;12.07;3.10;;;11.50;99.90;;;;;;5085508;28;20293;-82
2023/01/12 12:34:54;;;;;;;12.70;3.23;;;11.50;99.90;;;;;;5083419;28;20199;-83
2023/01/12 12:37:32;;;;;;;10.27;3.03;;;11.50;99.90;;;;;;5081820;28;20204;-82
2023/01/12 12:40:09;;;;;;;9.33;2.90;;;11.50;99.90;;;;;;5081244;28;20283;-83
2023/01/12 12:45:47;;;;;;;8.43;2.90;;;11.60;99.90;;;;;;5078902;28;20220;-78
2023/01/12 12:48:20;;;;;;;8.07;2.60;;;11.60;99.90;;;;;;5081089;28;20180;-80
2023/01/12 12:50:57;;;;;;;7.00;2.47;;;11.70;99.90;;;;;;5079842;28;20630;-80
2023/01/12 12:53:27;;;;;;;10.03;2.97;;;11.70;99.90;;;;;;5099231;28;20184;-81
2023/01/12 12:56:01;;;;;;;8.00;2.83;;;11.80;99.90;;;;;;5098484;28;20223;-82
2023/01/12 12:58:37;;;;;;;8.03;2.80;;;11.90;99.90;;;;;;5080334;28;20204;-82
2023/01/12 13:01:42;;;;;;;9.73;2.87;;;11.90;99.90;;;;;;5080902;28;20195;-82
2023/01/12 13:04:13;;;;;;;12.03;3.13;;;12.00;99.90;;;;;;5079867;28;20280;-82
2023/01/12 13:06:45;;;;;;;9.23;2.63;;;12.00;99.90;;;;;;5081391;28;20234;-83
2023/01/12 13:09:37;;;;;;;6.80;2.40;;;12.00;99.90;;;;;;5080975;28;20678;-79
2023/01/12 13:12:31;;;;;;;8.60;2.90;;;12.00;99.90;;;;;;5079751;28;20242;-83
2023/01/12 13:15:20;;;;;;;8.67;3.03;;;12.00;99.90;;;;;;5098470;28;21005;-83
2023/01/12 13:17:49;;;;;;;11.13;3.03;;;12.00;99.90;;;;;;5096868;28;20188;-83
2023/01/12 13:20:51;;;;;;;7.53;2.80;;;11.90;99.90;;;;;;5096946;28;20202;-82
2023/01/12 13:23:46;;;;;;;7.33;2.83;;;11.90;99.90;;;;;;5074960;28;20231;-81
2023/01/12 13:26:51;;;;;;;6.17;2.50;;;11.90;99.90;;;;;;5079406;28;20238;-81
2023/01/12 13:29:40;;;;;;;7.13;2.40;;;11.90;99.90;;;;;;5098551;28;20218;-81
2023/01/12 13:32:35;;;;;;;7.90;3.00;;;11.90;99.90;;;;;;5097357;28;20207;-82
2023/01/12 13:35:03;;;;;;;6.67;2.90;;;11.90;99.90;;;;;;5097605;28;20215;-83
2023/01/12 13:37:44;;;;;;;9.13;3.27;;;11.90;99.90;;;;;;5079287;28;20646;-81
2023/01/12 13:40:18;;;;;;;7.97;3.10;;;11.90;99.90;;;;;;5097782;28;20690;-80
2023/01/12 13:45:35;;;;;;;8.00;3.47;;;11.80;99.90;;;;;;5098070;28;20694;-81
2023/01/12 13:48:06;;;;;;;8.80;3.77;;;11.80;99.90;;;;;;5080105;28;20199;-80
2023/01/12 13:50:35;;;;;;;9.10;3.40;;;11.70;99.90;;;;;;5079897;28;20230;-81